createdAt,value
2023-03-11T00:00:46.880Z,82.63
2023-03-11T00:03:27.850Z,82.64
2023-03-11T00:05:58.754Z,82.63
2023-03-11T00:08:28.408Z,82.40
2023-03-11T00:11:00.569Z,82.36
2023-03-11T00:13:30.930Z,82.56
2023-03-11T00:16:01.505Z,82.53
2023-03-11T00:18:31.785Z,82.37
2023-03-11T00:21:00.939Z,82.79
2023-03-11T00:23:29.705Z,82.45
2023-03-11T00:26:00.054Z,82.70
2023-03-11T00:28:28.584Z,82.61
2023-03-11T00:30:56.983Z,82.57
2023-03-11T00:33:25.441Z,82.49
2023-03-11T00:35:53.830Z,82.53
2023-03-11T00:38:22.362Z,82.36
2023-03-11T00:40:51.024Z,82.65
2023-03-11T00:43:19.465Z,82.57
2023-03-11T00:45:47.820Z,82.90
2023-03-11T00:48:16.293Z,83.02
2023-03-11T00:50:44.801Z,83.04
2023-03-11T00:53:16.018Z,82.60
2023-03-11T00:55:46.658Z,82.77
2023-03-11T00:58:14.931Z,82.89
2023-03-11T01:00:43.412Z,83.01
2023-03-11T01:03:11.825Z,83.20
2023-03-11T01:05:40.720Z,82.71
2023-03-11T01:08:09.046Z,82.73
2023-03-11T01:10:37.673Z,82.99
2023-03-11T01:13:06.486Z,83.00
2023-03-11T01:15:37.126Z,83.04
2023-03-11T01:18:06.485Z,83.18
2023-03-11T01:20:36.838Z,83.02
2023-03-11T01:23:06.515Z,83.34
2023-03-11T01:25:36.153Z,83.43
2023-03-11T01:28:07.399Z,83.14
2023-03-11T01:30:39.208Z,83.25
2023-03-11T01:33:10.045Z,83.37
2023-03-11T01:35:40.213Z,83.42
2023-03-11T01:38:08.868Z,83.63
2023-03-11T01:40:43.525Z,83.35
2023-03-11T01:43:39.650Z,83.43
2023-03-11T01:46:33.062Z,83.31
2023-03-11T01:49:22.647Z,83.29
2023-03-11T01:52:04.145Z,83.57
2023-03-11T01:54:36.301Z,83.33
2023-03-11T01:57:11.879Z,83.61
2023-03-11T01:59:46.112Z,83.54
2023-03-11T02:02:31.213Z,83.53
2023-03-11T02:05:01.956Z,83.66
2023-03-11T02:07:30.494Z,83.39
2023-03-11T02:09:58.936Z,83.02
2023-03-11T02:12:31.392Z,83.21
2023-03-11T02:15:00.738Z,83.25
2023-03-11T02:17:29.081Z,83.18
2023-03-11T02:20:16.790Z,83.15
2023-03-11T02:22:45.382Z,83.28
2023-03-11T02:25:31.601Z,83.13
2023-03-11T02:28:02.659Z,83.04
2023-03-11T02:30:33.937Z,82.99
2023-03-11T02:33:03.367Z,83.21
2023-03-11T02:35:31.817Z,83.22
2023-03-11T02:38:00.046Z,82.93
2023-03-11T02:40:36.884Z,83.05
2023-03-11T02:43:12.105Z,82.89
2023-03-11T02:45:44.466Z,83.02
2023-03-11T02:48:14.506Z,83.11
2023-03-11T02:50:44.279Z,83.01
2023-03-11T02:53:12.644Z,83.21
2023-03-11T02:55:40.964Z,83.45
2023-03-11T02:58:09.658Z,83.60
2023-03-11T03:00:38.877Z,83.60
2023-03-11T03:03:07.158Z,83.45
2023-03-11T03:05:35.455Z,83.91
2023-03-11T03:08:03.750Z,84.22
2023-03-11T03:10:32.018Z,83.97
2023-03-11T03:13:00.360Z,84.31
2023-03-11T03:15:28.672Z,84.01
2023-03-11T03:17:57.038Z,84.39
2023-03-11T03:20:26.769Z,84.63
2023-03-11T03:22:55.546Z,85.00
2023-03-11T03:25:24.060Z,84.71
2023-03-11T03:27:52.455Z,84.92
2023-03-11T03:30:21.014Z,85.16
2023-03-11T03:32:49.473Z,84.50
2023-03-11T03:35:17.820Z,85.14
2023-03-11T03:37:46.329Z,84.98
2023-03-11T03:40:14.847Z,85.12
2023-03-11T03:42:43.059Z,84.78
2023-03-11T03:45:12.262Z,84.81
2023-03-11T03:47:40.489Z,85.24
2023-03-11T03:50:11.042Z,85.19
2023-03-11T03:52:39.376Z,85.00
2023-03-11T03:55:07.986Z,85.10
2023-03-11T03:57:36.315Z,85.20
2023-03-11T04:00:05.463Z,84.92
2023-03-11T04:02:33.726Z,84.97
2023-03-11T04:05:02.218Z,84.90
2023-03-11T04:07:30.527Z,84.95
2023-03-11T04:09:58.892Z,85.02
2023-03-11T04:12:27.352Z,84.72
2023-03-11T04:14:55.683Z,84.70
2023-03-11T04:17:24.040Z,85.05
2023-03-11T04:19:52.339Z,84.76
2023-03-11T04:22:20.586Z,85.07
2023-03-11T04:24:48.929Z,84.67
2023-03-11T04:27:17.315Z,85.03
2023-03-11T04:29:45.569Z,84.56
2023-03-11T04:32:13.829Z,84.60
2023-03-11T04:34:42.237Z,84.62
2023-03-11T04:37:10.462Z,84.48
2023-03-11T04:39:38.887Z,84.23
2023-03-11T04:42:07.295Z,84.15
2023-03-11T04:44:36.492Z,83.93
2023-03-11T04:47:04.857Z,83.68
2023-03-11T04:49:33.147Z,83.84
2023-03-11T04:52:01.445Z,84.13
2023-03-11T04:54:29.683Z,83.61
2023-03-11T04:56:58.189Z,84.10
2023-03-11T04:59:26.554Z,84.02
2023-03-11T05:01:54.812Z,83.99
2023-03-11T05:04:23.264Z,83.92
2023-03-11T05:06:51.560Z,83.62
2023-03-11T05:09:19.784Z,83.23
2023-03-11T05:11:48.634Z,83.45
2023-03-11T05:14:16.858Z,83.00
2023-03-11T05:16:45.103Z,83.15
2023-03-11T05:19:31.815Z,83.16
2023-03-11T05:22:01.244Z,82.68
2023-03-11T05:24:30.282Z,82.54
2023-03-11T05:26:58.636Z,82.66
2023-03-11T05:29:27.004Z,82.04
2023-03-11T05:31:55.433Z,82.04
2023-03-11T05:34:23.817Z,81.67
2023-03-11T05:36:52.047Z,81.46
2023-03-11T05:39:20.375Z,81.52
2023-03-11T05:41:48.860Z,81.45
2023-03-11T05:44:17.079Z,81.37
2023-03-11T05:46:45.478Z,81.14
2023-03-11T05:49:13.950Z,81.82
2023-03-11T05:51:42.196Z,81.35
2023-03-11T05:54:15.271Z,81.45
2023-03-11T05:56:47.641Z,81.28
2023-03-11T05:59:17.859Z,81.17
2023-03-11T06:01:46.294Z,81.04
2023-03-11T06:04:14.672Z,81.03
2023-03-11T06:06:43.073Z,81.28
2023-03-11T06:09:14.058Z,81.24
2023-03-11T06:11:43.091Z,80.87
2023-03-11T06:14:15.315Z,80.95
2023-03-11T06:16:43.933Z,80.68
2023-03-11T06:19:12.369Z,80.33
2023-03-11T06:21:40.675Z,80.35
2023-03-11T06:24:09.078Z,80.37
2023-03-11T06:26:37.299Z,79.62
2023-03-11T06:29:07.831Z,79.57
2023-03-11T06:31:37.374Z,79.88
2023-03-11T06:34:06.598Z,80.17
2023-03-11T06:36:34.874Z,80.43
2023-03-11T06:39:04.518Z,80.92
2023-03-11T06:41:35.773Z,81.50
2023-03-11T06:44:05.212Z,81.58
2023-03-11T06:46:33.522Z,81.89
2023-03-11T06:49:01.829Z,82.21
2023-03-11T06:51:30.308Z,81.90
2023-03-11T06:53:58.928Z,82.26
2023-03-11T06:56:28.839Z,82.15
2023-03-11T06:58:57.071Z,82.06
2023-03-11T07:01:27.452Z,82.17
2023-03-11T07:03:55.804Z,81.91
2023-03-11T07:06:27.122Z,81.82
2023-03-11T07:08:55.741Z,82.09
2023-03-11T07:11:26.380Z,82.21
2023-03-11T07:13:55.818Z,82.24
2023-03-11T07:16:27.076Z,82.00
2023-03-11T07:19:01.299Z,81.98
2023-03-11T07:21:31.843Z,81.87
2023-03-11T07:24:01.963Z,82.08
2023-03-11T07:26:30.965Z,82.06
2023-03-11T07:29:00.037Z,82.10
2023-03-11T07:31:31.711Z,82.07
2023-03-11T07:34:02.014Z,81.99
2023-03-11T07:36:31.002Z,82.18
2023-03-11T07:39:04.469Z,82.08
2023-03-11T07:41:35.068Z,82.26
2023-03-11T07:44:05.113Z,81.98
2023-03-11T07:46:34.319Z,82.01
2023-03-11T07:49:03.893Z,82.09
2023-03-11T07:51:35.182Z,81.95
2023-03-11T07:54:04.740Z,81.90
2023-03-11T07:56:35.484Z,81.94
2023-03-11T07:59:05.310Z,82.22
2023-03-11T08:01:41.423Z,82.05
2023-03-11T08:04:14.306Z,81.76
2023-03-11T08:06:47.420Z,81.81
2023-03-11T08:09:17.200Z,81.84
2023-03-11T08:11:49.494Z,81.80
2023-03-11T08:14:18.065Z,81.46
2023-03-11T08:16:46.365Z,81.43
2023-03-11T08:19:14.882Z,80.95
2023-03-11T08:21:43.223Z,80.71
2023-03-11T08:24:13.860Z,80.88
2023-03-11T08:26:42.490Z,80.61
2023-03-11T08:29:10.879Z,80.97
2023-03-11T08:31:39.398Z,80.89
2023-03-11T08:34:09.794Z,80.82
2023-03-11T08:36:38.363Z,80.98
2023-03-11T08:39:07.210Z,80.45
2023-03-11T08:41:35.580Z,80.49
2023-03-11T08:44:04.270Z,80.13
2023-03-11T08:46:35.919Z,80.35
2023-03-11T08:49:05.753Z,80.53
2023-03-11T08:51:35.477Z,80.13
2023-03-11T08:54:04.429Z,80.18
2023-03-11T08:56:32.879Z,80.09
2023-03-11T08:59:01.431Z,80.11
2023-03-11T09:01:30.401Z,79.98
2023-03-11T09:03:59.010Z,80.20
2023-03-11T09:06:27.292Z,80.23
2023-03-11T09:08:55.603Z,80.56
2023-03-11T09:11:24.582Z,80.29
2023-03-11T09:13:52.884Z,80.20
2023-03-11T09:16:22.907Z,80.30
2023-03-11T09:18:51.392Z,80.28
2023-03-11T09:21:19.954Z,80.55
2023-03-11T09:23:48.499Z,80.50
2023-03-11T09:26:16.973Z,80.41
2023-03-11T09:28:49.317Z,79.80
2023-03-11T09:31:19.581Z,79.90
2023-03-11T09:33:48.471Z,80.23
2023-03-11T09:36:19.731Z,79.68
2023-03-11T09:38:49.077Z,79.83
2023-03-11T09:41:25.802Z,79.48
2023-03-11T09:44:33.510Z,79.17
2023-03-11T09:47:32.422Z,79.29
2023-03-11T09:50:09.451Z,79.73
2023-03-11T09:52:50.744Z,79.35
2023-03-11T09:55:39.906Z,78.81
2023-03-11T09:58:34.444Z,78.50
2023-03-11T10:01:12.300Z,77.25
2023-03-11T10:03:40.639Z,77.68
2023-03-11T10:06:24.037Z,76.41
2023-03-11T10:08:59.731Z,76.78
2023-03-11T10:12:12.424Z,77.26
2023-03-11T10:14:49.151Z,76.59
2023-03-11T10:17:35.532Z,76.61
2023-03-11T10:20:26.399Z,75.87
2023-03-11T10:23:13.410Z,76.03
2023-03-11T10:26:03.152Z,75.59
2023-03-11T10:28:40.654Z,75.15
2023-03-11T10:31:35.105Z,74.79
2023-03-11T10:34:22.023Z,74.75
2023-03-11T10:37:36.014Z,73.98
2023-03-11T10:40:26.895Z,73.41
2023-03-11T10:42:57.662Z,71.65
2023-03-11T10:45:26.241Z,70.97
2023-03-11T10:47:57.987Z,70.31
2023-03-11T10:50:26.595Z,71.42
2023-03-11T10:53:07.564Z,70.73
2023-03-11T10:55:44.739Z,70.45
2023-03-11T10:58:19.456Z,71.08
2023-03-11T11:01:15.788Z,70.15
2023-03-11T11:03:50.389Z,70.84
2023-03-11T11:06:29.559Z,70.30
2023-03-11T11:09:19.670Z,68.90
2023-03-11T11:12:14.527Z,68.96
2023-03-11T11:14:54.032Z,69.99
2023-03-11T11:17:34.338Z,70.09
2023-03-11T11:20:13.288Z,69.41
2023-03-11T11:22:55.346Z,68.05
2023-03-11T11:25:38.087Z,68.32
2023-03-11T11:28:18.433Z,69.47
2023-03-11T11:31:01.839Z,68.77
2023-03-11T11:33:51.642Z,69.15
2023-03-11T11:36:26.968Z,69.44
2023-03-11T11:38:55.952Z,69.69
2023-03-11T11:41:26.406Z,69.13
2023-03-11T11:44:04.902Z,68.52
2023-03-11T11:46:57.938Z,69.15
2023-03-11T11:49:30.220Z,69.48
2023-03-11T11:52:01.337Z,69.13
2023-03-11T11:54:41.800Z,68.51
2023-03-11T11:57:16.190Z,68.53
2023-03-11T11:59:44.919Z,68.48
2023-03-11T12:02:47.100Z,66.63
2023-03-11T12:05:33.839Z,66.69
2023-03-11T12:08:18.440Z,67.14
2023-03-11T12:10:53.860Z,66.57
2023-03-11T12:13:46.750Z,65.23
2023-03-11T12:16:42.781Z,63.78
2023-03-11T12:19:36.453Z,62.63
2023-03-11T12:22:36.010Z,64.55
2023-03-11T12:26:01.003Z,63.41
2023-03-11T12:28:48.510Z,64.83
2023-03-11T12:31:17.293Z,63.93
2023-03-11T12:34:11.601Z,64.31
2023-03-11T12:36:44.070Z,64.52
2023-03-11T12:39:38.286Z,64.51
2023-03-11T12:42:16.672Z,64.18
2023-03-11T12:44:46.802Z,64.68
2023-03-11T12:47:27.531Z,64.91
2023-03-11T12:50:16.781Z,64.51
2023-03-11T12:52:55.349Z,62.50
2023-03-11T12:55:28.504Z,62.39
2023-03-11T12:58:22.749Z,61.73
2023-03-11T13:01:08.226Z,63.33
2023-03-11T13:03:46.117Z,63.40
2023-03-11T13:06:18.043Z,63.77
2023-03-11T13:08:51.309Z,64.39
2023-03-11T13:11:39.122Z,64.85
2023-03-11T13:14:36.172Z,65.44
2023-03-11T13:17:32.646Z,64.66
2023-03-11T13:20:01.118Z,64.61
2023-03-11T13:22:53.931Z,63.38
2023-03-11T13:25:37.202Z,64.15
2023-03-11T13:28:32.195Z,63.84
2023-03-11T13:31:29.993Z,64.66
2023-03-11T13:34:03.315Z,65.45
2023-03-11T13:41:17.474Z,65.89
2023-03-11T13:47:46.903Z,68.44
2023-03-11T13:53:42.452Z,69.33
2023-03-11T13:56:23.240Z,69.66
2023-03-11T13:59:15.428Z,69.92
2023-03-11T14:02:20.423Z,70.17
2023-03-11T14:12:48.482Z,71.08
2023-03-11T14:20:27.430Z,71.62
2023-03-11T14:33:40.823Z,70.16
2023-03-11T14:36:14.066Z,70.21
2023-03-11T14:38:44.558Z,70.14
2023-03-11T14:41:15.855Z,69.84
2023-03-11T14:43:49.494Z,70.39
2023-03-11T14:46:27.257Z,70.37
2023-03-11T14:48:58.333Z,70.74
2023-03-11T14:51:33.526Z,70.92
2023-03-11T14:54:18.226Z,70.75
2023-03-11T14:56:53.055Z,70.86
2023-03-11T14:59:32.453Z,70.90
2023-03-11T15:02:23.744Z,71.07
2023-03-11T15:04:53.625Z,70.85
2023-03-11T15:07:22.146Z,70.91
2023-03-11T15:09:50.440Z,70.78
2023-03-11T15:12:40.151Z,70.47
2023-03-11T15:15:26.831Z,70.66
2023-03-11T15:17:57.524Z,70.83
2023-03-11T15:20:27.772Z,71.30
2023-03-11T15:23:02.317Z,71.13
2023-03-11T15:25:34.502Z,71.72
2023-03-11T15:28:22.268Z,71.46
2023-03-11T15:30:50.633Z,71.59
2023-03-11T15:33:32.042Z,71.64
2023-03-11T15:36:00.645Z,71.28
2023-03-11T15:38:28.908Z,70.58
2023-03-11T15:41:02.784Z,70.67
2023-03-11T15:43:42.249Z,69.20
2023-03-11T15:46:11.314Z,69.44
2023-03-11T15:48:39.656Z,69.15
2023-03-11T15:51:19.589Z,69.39
2023-03-11T15:53:48.663Z,68.43
2023-03-11T15:56:24.510Z,68.59
2023-03-11T15:58:52.800Z,69.23
2023-03-11T16:01:24.402Z,69.27
2023-03-11T16:03:52.758Z,68.36
2023-03-11T16:06:23.022Z,68.18
2023-03-11T16:08:51.301Z,68.85
2023-03-11T16:11:19.670Z,68.46
2023-03-11T16:13:47.980Z,68.08
2023-03-11T16:16:18.076Z,67.90
2023-03-11T16:18:46.552Z,68.15
2023-03-11T16:21:18.782Z,68.47
2023-03-11T16:23:52.032Z,68.69
2023-03-11T16:26:22.756Z,68.41
2023-03-11T16:28:51.160Z,68.76
2023-03-11T16:31:19.623Z,68.97
2023-03-11T16:33:48.092Z,69.29
2023-03-11T16:36:16.396Z,69.73
2023-03-11T16:38:47.756Z,69.60
2023-03-11T16:41:17.491Z,69.89
2023-03-11T16:43:46.496Z,69.69
2023-03-11T16:46:14.776Z,69.20
2023-03-11T16:48:43.129Z,68.97
2023-03-11T16:51:11.572Z,69.50
2023-03-11T16:53:39.916Z,69.43
2023-03-11T16:56:09.595Z,69.87
2023-03-11T16:58:38.163Z,69.89
2023-03-11T17:01:12.803Z,69.43
2023-03-11T17:03:43.655Z,69.82
2023-03-11T17:06:12.091Z,69.68
2023-03-11T17:08:40.781Z,69.52
2023-03-11T17:11:18.142Z,69.55
2023-03-11T17:13:48.215Z,69.80
2023-03-11T17:16:17.303Z,69.54
2023-03-11T17:18:47.367Z,70.07
2023-03-11T17:21:17.693Z,69.78
2023-03-11T17:23:46.097Z,70.05
2023-03-11T17:26:17.361Z,69.91
2023-03-11T17:28:45.724Z,69.98
2023-03-11T17:31:15.926Z,70.20
2023-03-11T17:33:44.881Z,70.54
2023-03-11T17:36:16.514Z,70.33
2023-03-11T17:39:01.713Z,70.09
2023-03-11T17:41:30.686Z,69.92
2023-03-11T17:43:59.192Z,70.02
2023-03-11T17:46:27.705Z,70.06
2023-03-11T17:48:57.265Z,70.12
2023-03-11T17:52:14.604Z,70.01
2023-03-11T17:54:46.162Z,70.24
2023-03-11T17:57:18.768Z,70.01
2023-03-11T17:59:51.328Z,69.89
2023-03-11T18:02:26.034Z,69.58
2023-03-11T18:04:56.681Z,69.92
2023-03-11T18:07:26.179Z,70.53
2023-03-11T18:09:55.360Z,70.52
2023-03-11T18:12:25.533Z,70.00
2023-03-11T18:14:54.463Z,69.75
2023-03-11T18:17:24.415Z,69.69
2023-03-11T18:20:00.078Z,69.94
2023-03-11T18:22:29.135Z,69.84
2023-03-11T18:24:59.399Z,69.69
2023-03-11T18:27:30.262Z,69.82
2023-03-11T18:30:00.326Z,69.48
2023-03-11T18:32:28.854Z,69.80
2023-03-11T18:34:57.099Z,69.78
2023-03-11T18:37:25.599Z,69.83
2023-03-11T18:39:55.634Z,70.27
2023-03-11T18:42:52.498Z,69.71
2023-03-11T18:45:22.527Z,69.87
2023-03-11T18:47:50.906Z,69.89
2023-03-11T18:50:20.339Z,69.73
2023-03-11T18:52:52.789Z,69.84
2023-03-11T18:55:21.114Z,69.98
2023-03-11T18:57:49.827Z,69.92
2023-03-11T19:00:22.691Z,70.45
2023-03-11T19:02:53.854Z,70.31
2023-03-11T19:05:22.968Z,70.73
2023-03-11T19:07:51.184Z,70.90
2023-03-11T19:10:20.354Z,71.04
2023-03-11T19:12:48.843Z,70.76
2023-03-11T19:15:17.365Z,71.02
2023-03-11T19:17:54.477Z,71.08
2023-03-11T19:20:30.642Z,70.95
2023-03-11T19:22:58.959Z,71.05
2023-03-11T19:25:28.086Z,71.05
2023-03-11T19:27:57.313Z,71.11
2023-03-11T19:30:28.841Z,71.16
2023-03-11T19:32:57.302Z,71.33
2023-03-11T19:35:25.933Z,71.23
2023-03-11T19:37:57.323Z,71.19
2023-03-11T19:40:30.090Z,71.22
2023-03-11T19:42:59.343Z,71.18
2023-03-11T19:45:32.282Z,71.29
2023-03-11T19:48:00.916Z,71.34
2023-03-11T19:50:29.378Z,71.55
2023-03-11T19:52:57.712Z,71.77
2023-03-11T19:55:26.040Z,71.78
2023-03-11T19:57:55.167Z,71.38
2023-03-11T20:00:23.641Z,71.86
2023-03-11T20:02:56.792Z,71.68
2023-03-11T20:05:25.480Z,71.87
2023-03-11T20:07:53.802Z,71.88
2023-03-11T20:10:23.765Z,71.93
2023-03-11T20:13:01.819Z,71.98
2023-03-11T20:15:31.501Z,71.99
2023-03-11T20:18:01.302Z,72.14
2023-03-11T20:20:30.749Z,72.27
2023-03-11T20:22:59.541Z,72.39
2023-03-11T20:25:31.172Z,72.55
2023-03-11T20:28:00.572Z,72.46
2023-03-11T20:30:29.345Z,72.21
2023-03-11T20:32:57.791Z,72.35
2023-03-11T20:35:26.243Z,72.28
2023-03-11T20:37:54.768Z,72.34
2023-03-11T20:40:23.137Z,72.56
2023-03-11T20:42:51.509Z,72.52
2023-03-11T20:45:22.580Z,72.51
2023-03-11T20:47:53.732Z,72.82
2023-03-11T20:50:25.041Z,72.90
2023-03-11T20:52:53.463Z,72.68
2023-03-11T20:55:22.983Z,72.82
2023-03-11T20:57:51.520Z,72.93
2023-03-11T21:00:20.719Z,73.01
2023-03-11T21:02:49.400Z,72.82
2023-03-11T21:05:18.026Z,73.09
2023-03-11T21:07:48.692Z,73.03
2023-03-11T21:10:18.332Z,73.13
2023-03-11T21:12:46.770Z,73.11
2023-03-11T21:15:15.138Z,73.26
2023-03-11T21:17:43.591Z,73.36
2023-03-11T21:20:12.867Z,73.61
2023-03-11T21:22:41.570Z,73.85
2023-03-11T21:25:10.098Z,73.56
2023-03-11T21:27:38.484Z,73.66
2023-03-11T21:30:07.931Z,74.02
2023-03-11T21:32:38.724Z,73.89
2023-03-11T21:35:07.459Z,73.86
2023-03-11T21:37:35.911Z,73.94
2023-03-11T21:40:07.733Z,73.88
2023-03-11T21:42:36.278Z,74.19
2023-03-11T21:45:04.933Z,74.11
2023-03-11T21:47:33.436Z,74.14
2023-03-11T21:50:01.979Z,73.93
2023-03-11T21:52:30.602Z,74.20
2023-03-11T21:54:59.367Z,74.32
2023-03-11T21:57:27.953Z,74.42
2023-03-11T21:59:56.258Z,74.22
2023-03-11T22:02:24.595Z,74.18
2023-03-11T22:04:53.154Z,74.47
2023-03-11T22:07:21.695Z,74.57
2023-03-11T22:09:52.174Z,75.03
2023-03-11T22:12:20.810Z,74.94
2023-03-11T22:14:49.522Z,74.83
2023-03-11T22:17:18.081Z,75.05
2023-03-11T22:19:46.691Z,74.96
2023-03-11T22:22:15.158Z,74.81
2023-03-11T22:24:43.556Z,75.04
2023-03-11T22:27:12.060Z,74.88
2023-03-11T22:29:40.464Z,74.96
2023-03-11T22:32:08.719Z,75.10
2023-03-11T22:34:37.203Z,74.93
2023-03-11T22:37:05.637Z,75.13
2023-03-11T22:39:34.184Z,75.13
2023-03-11T22:42:02.489Z,74.98
2023-03-11T22:44:30.953Z,75.45
2023-03-11T22:46:59.294Z,75.13
2023-03-11T22:49:27.676Z,75.41
2023-03-11T22:51:56.037Z,75.72
2023-03-11T22:54:24.670Z,75.55
2023-03-11T22:56:52.941Z,75.64
2023-03-11T22:59:21.278Z,75.49
2023-03-11T23:01:49.522Z,75.50
2023-03-11T23:04:17.801Z,75.52
2023-03-11T23:06:46.184Z,75.55
2023-03-11T23:09:14.539Z,75.82
2023-03-11T23:11:42.826Z,75.68
2023-03-11T23:14:11.193Z,75.94
2023-03-11T23:16:41.526Z,76.15
2023-03-11T23:19:10.413Z,76.15
2023-03-11T23:21:39.417Z,76.38
2023-03-11T23:24:10.463Z,76.46
2023-03-11T23:26:38.782Z,76.45
2023-03-11T23:29:07.226Z,76.66
2023-03-11T23:31:36.586Z,76.80
2023-03-11T23:34:06.722Z,76.61
2023-03-11T23:36:35.053Z,76.52
2023-03-11T23:39:03.531Z,76.75
2023-03-11T23:41:31.965Z,77.07
2023-03-11T23:44:00.252Z,76.95
2023-03-11T23:46:28.605Z,77.04
2023-03-11T23:48:56.963Z,77.02
2023-03-11T23:51:25.286Z,77.18
2023-03-11T23:53:53.742Z,77.21
2023-03-11T23:56:21.966Z,77.15
2023-03-11T23:58:50.179Z,77.46
